createdAt,value
2023-02-18T00:00:48.611Z,146798.03
2023-02-18T00:01:51.252Z,146802.88
2023-02-18T00:02:55.817Z,146805.28
2023-02-18T00:04:00.257Z,146825.81
2023-02-18T00:05:03.199Z,146821.00
2023-02-18T00:06:17.051Z,146837.88
2023-02-18T00:07:19.704Z,146814.91
2023-02-18T00:08:22.694Z,146830.66
2023-02-18T00:09:25.337Z,146829.44
2023-02-18T00:10:27.984Z,146837.88
2023-02-18T00:11:34.093Z,146854.81
2023-02-18T00:12:36.619Z,146842.69
2023-02-18T00:13:39.618Z,146852.41
2023-02-18T00:14:42.139Z,146851.19
2023-02-18T00:15:44.804Z,146864.44
2023-02-18T00:16:47.305Z,146846.31
2023-02-18T00:17:49.960Z,146853.59
2023-02-18T00:18:59.186Z,146887.41
2023-02-18T00:20:01.701Z,146871.69
2023-02-18T00:21:05.902Z,146858.41
2023-02-18T00:22:08.542Z,146869.28
2023-02-18T00:23:11.067Z,146872.88
2023-02-18T00:24:15.869Z,146881.34
2023-02-18T00:25:18.503Z,146899.47
2023-02-18T00:26:21.391Z,146910.31
2023-02-18T00:27:23.904Z,146892.22
2023-02-18T00:28:26.799Z,146909.13
2023-02-18T00:29:29.434Z,146899.47
2023-02-18T00:30:32.013Z,146901.88
2023-02-18T00:31:37.215Z,146907.91
2023-02-18T00:32:39.760Z,146907.91
2023-02-18T00:33:42.874Z,146923.63
2023-02-18T00:34:45.521Z,146916.41
2023-02-18T00:35:48.044Z,146921.22
2023-02-18T00:36:51.400Z,146921.22
2023-02-18T00:37:54.042Z,146917.59
2023-02-18T00:38:59.584Z,146939.31
2023-02-18T00:40:02.085Z,146907.91
2023-02-18T00:41:07.039Z,146913.94
2023-02-18T00:42:10.020Z,146923.63
2023-02-18T00:43:12.770Z,146916.41
2023-02-18T00:44:15.411Z,146911.53
2023-02-18T00:45:18.176Z,146907.91
2023-02-18T00:46:22.540Z,146913.94
2023-02-18T00:47:25.378Z,146901.88
2023-02-18T00:48:28.385Z,146918.81
2023-02-18T00:49:31.741Z,146918.81
2023-02-18T00:50:34.746Z,146918.81
2023-02-18T00:51:37.744Z,146921.22
2023-02-18T00:52:40.748Z,146928.47
2023-02-18T00:53:44.013Z,146934.50
2023-02-18T00:54:47.110Z,146932.09
2023-02-18T00:55:50.233Z,146950.22
2023-02-18T00:56:53.472Z,146959.88
2023-02-18T00:57:56.593Z,146969.50
2023-02-18T00:58:59.834Z,146962.28
2023-02-18T01:00:05.598Z,146984.03
2023-02-18T01:01:10.646Z,146996.09
2023-02-18T01:02:13.764Z,146982.84
2023-02-18T01:03:16.884Z,146979.16
2023-02-18T01:04:20.198Z,146963.50
2023-02-18T01:05:24.573Z,146968.31
2023-02-18T01:06:27.691Z,146980.41
2023-02-18T01:07:30.815Z,146977.97
2023-02-18T01:08:34.895Z,146996.09
2023-02-18T01:09:38.017Z,146986.44
2023-02-18T01:10:43.659Z,146994.91
2023-02-18T01:11:46.901Z,146999.72
2023-02-18T01:12:50.141Z,147010.56
2023-02-18T01:13:53.394Z,147011.78
2023-02-18T01:14:56.512Z,146991.28
2023-02-18T01:15:59.900Z,146979.16
2023-02-18T01:17:05.886Z,146991.28
2023-02-18T01:18:10.072Z,147015.44
2023-02-18T01:19:13.315Z,146981.63
2023-02-18T01:20:18.717Z,147015.44
2023-02-18T01:21:22.438Z,147002.13
2023-02-18T01:22:25.563Z,146991.28
2023-02-18T01:23:29.049Z,147003.34
2023-02-18T01:24:32.284Z,146996.09
2023-02-18T01:25:37.204Z,147000.94
2023-02-18T01:26:40.451Z,146996.09
2023-02-18T01:27:44.170Z,146992.47
2023-02-18T01:28:47.414Z,147000.94
2023-02-18T01:29:50.774Z,147004.53
2023-02-18T01:30:54.569Z,147008.16
2023-02-18T01:31:57.381Z,146991.28
2023-02-18T01:33:00.501Z,146982.84
2023-02-18T01:34:03.144Z,147011.78
2023-02-18T01:35:06.626Z,147006.97
2023-02-18T01:36:10.955Z,147026.31
2023-02-18T01:37:13.947Z,147017.88
2023-02-18T01:38:16.705Z,147013.03
2023-02-18T01:39:19.951Z,147014.25
2023-02-18T01:40:26.118Z,147034.75
2023-02-18T01:41:28.951Z,147010.56
2023-02-18T01:42:31.636Z,147011.78
2023-02-18T01:43:34.955Z,147010.56
2023-02-18T01:44:38.124Z,146997.31
2023-02-18T01:45:43.637Z,147023.91
2023-02-18T01:46:47.006Z,147014.25
2023-02-18T01:47:50.720Z,146994.91
2023-02-18T01:49:01.764Z,147005.75
2023-02-18T01:50:04.641Z,146969.50
2023-02-18T01:51:16.521Z,147006.97
2023-02-18T01:52:24.444Z,147008.16
2023-02-18T01:53:33.526Z,147026.31
2023-02-18T01:54:43.367Z,147027.50
2023-02-18T01:55:47.843Z,147016.66
2023-02-18T01:56:57.712Z,147032.34
2023-02-18T01:58:00.324Z,147016.66
2023-02-18T01:59:08.248Z,147044.41
2023-02-18T02:00:17.395Z,147046.88
2023-02-18T02:01:22.887Z,147029.94
2023-02-18T02:02:28.529Z,147055.31
2023-02-18T02:03:31.310Z,147035.97
2023-02-18T02:04:34.051Z,147044.41
2023-02-18T02:05:37.985Z,146988.88
2023-02-18T02:06:41.013Z,146947.75
2023-02-18T02:07:45.474Z,146981.63
2023-02-18T02:08:51.342Z,146980.41
2023-02-18T02:09:56.612Z,146967.09
2023-02-18T02:11:13.775Z,146984.03
2023-02-18T02:12:46.651Z,146971.94
2023-02-18T02:14:07.654Z,146984.03
2023-02-18T02:15:31.180Z,146984.03
2023-02-18T02:17:18.696Z,146991.28
2023-02-18T02:18:37.899Z,146962.28
2023-02-18T02:20:27.936Z,146986.44
2023-02-18T02:21:49.180Z,146976.75
2023-02-18T02:23:09.705Z,147008.16
2023-02-18T02:24:39.698Z,147003.34
2023-02-18T02:25:54.227Z,146998.50
2023-02-18T02:27:02.503Z,146986.44
2023-02-18T02:28:10.917Z,146996.09
2023-02-18T02:29:29.025Z,146990.06
2023-02-18T02:30:47.769Z,146996.09
2023-02-18T02:32:11.510Z,147015.44
2023-02-18T02:33:41.150Z,147022.69
2023-02-18T02:34:55.436Z,147019.06
2023-02-18T02:36:37.798Z,147005.75
2023-02-18T02:38:00.479Z,146996.09
2023-02-18T02:39:14.879Z,147005.75
2023-02-18T02:40:45.122Z,147016.66
2023-02-18T02:42:12.367Z,147015.44
2023-02-18T02:43:51.854Z,147020.28
2023-02-18T02:45:11.543Z,147044.41
2023-02-18T02:46:29.290Z,147062.56
2023-02-18T02:47:55.815Z,147061.34
2023-02-18T02:49:19.699Z,147046.88
2023-02-18T02:50:45.142Z,147046.88
2023-02-18T02:51:53.544Z,147037.16
2023-02-18T02:53:02.784Z,147033.53
2023-02-18T02:54:17.609Z,147039.56
2023-02-18T02:55:20.913Z,147019.06
2023-02-18T02:56:26.792Z,147014.25
2023-02-18T02:57:31.233Z,147011.78
2023-02-18T02:59:01.236Z,147037.16
2023-02-18T03:00:12.279Z,147034.75
2023-02-18T03:01:36.040Z,147057.72
2023-02-18T03:03:17.819Z,147060.13
2023-02-18T03:04:47.925Z,147057.72
2023-02-18T03:06:03.888Z,147068.59
2023-02-18T03:07:25.011Z,147062.56
2023-02-18T03:08:37.252Z,147064.97
2023-02-18T03:09:57.416Z,147058.94
2023-02-18T03:11:08.108Z,147060.13
2023-02-18T03:12:23.459Z,147080.69
2023-02-18T03:14:05.367Z,147072.19
2023-02-18T03:15:49.384Z,147080.69
2023-02-18T03:17:21.067Z,147091.56
2023-02-18T03:18:47.591Z,147100.00
2023-02-18T03:19:58.160Z,147092.75
2023-02-18T03:21:10.399Z,147104.84
2023-02-18T03:22:27.675Z,147093.97
2023-02-18T03:23:58.880Z,147103.63
2023-02-18T03:25:05.361Z,147089.13
2023-02-18T03:26:10.162Z,147083.09
2023-02-18T03:27:20.363Z,147085.53
2023-02-18T03:28:27.805Z,147080.69
2023-02-18T03:29:31.409Z,147075.81
2023-02-18T03:30:44.975Z,147092.75
2023-02-18T03:31:54.110Z,147095.19
2023-02-18T03:33:01.773Z,147072.19
2023-02-18T03:34:12.105Z,147090.34
2023-02-18T03:35:18.376Z,147100.00
2023-02-18T03:36:22.187Z,147090.34
2023-02-18T03:37:25.182Z,147079.50
2023-02-18T03:39:00.223Z,147107.28
2023-02-18T03:40:04.305Z,147131.47
2023-02-18T03:41:07.239Z,147158.06
2023-02-18T03:42:11.836Z,147162.91
2023-02-18T03:43:14.522Z,147183.47
2023-02-18T03:44:17.333Z,147173.75
2023-02-18T03:45:20.082Z,147172.56
2023-02-18T03:46:23.082Z,147174.97
2023-02-18T03:47:26.087Z,147173.75
2023-02-18T03:48:28.967Z,147136.31
2023-02-18T03:49:31.603Z,147114.56
2023-02-18T03:50:36.250Z,147107.28
2023-02-18T03:51:38.929Z,147097.59
2023-02-18T03:52:41.448Z,147092.75
2023-02-18T03:53:44.088Z,147103.63
2023-02-18T03:54:48.287Z,147109.69
2023-02-18T03:55:51.050Z,147124.22
2023-02-18T03:56:53.690Z,147135.09
2023-02-18T03:57:56.293Z,147131.47
2023-02-18T03:58:59.690Z,147126.66
2023-02-18T04:00:02.449Z,147120.63
2023-02-18T04:01:15.930Z,147120.63
2023-02-18T04:02:18.497Z,147098.78
2023-02-18T04:03:21.535Z,147117.00
2023-02-18T04:04:24.266Z,147100.00
2023-02-18T04:05:26.931Z,147108.50
2023-02-18T04:06:29.578Z,147092.75
2023-02-18T04:07:32.187Z,147100.00
2023-02-18T04:08:35.104Z,147100.00
2023-02-18T04:09:38.813Z,147101.22
2023-02-18T04:10:41.455Z,147085.53
2023-02-18T04:11:44.116Z,147087.94
2023-02-18T04:12:46.743Z,147075.81
2023-02-18T04:13:49.616Z,147100.00
2023-02-18T04:14:52.146Z,147098.78
2023-02-18T04:15:54.775Z,147110.97
2023-02-18T04:16:57.397Z,147092.75
2023-02-18T04:17:59.940Z,147095.19
2023-02-18T04:19:02.705Z,147102.41
2023-02-18T04:20:06.064Z,147119.41
2023-02-18T04:21:08.697Z,147104.84
2023-02-18T04:22:11.219Z,147108.50
2023-02-18T04:23:13.864Z,147109.69
2023-02-18T04:24:16.522Z,147093.97
2023-02-18T04:25:19.063Z,147085.53
2023-02-18T04:26:21.542Z,147075.81
2023-02-18T04:27:24.062Z,147064.97
2023-02-18T04:28:26.716Z,147081.91
2023-02-18T04:29:29.228Z,147085.53
2023-02-18T04:30:32.225Z,147096.38
2023-02-18T04:31:34.828Z,147110.97
2023-02-18T04:32:37.384Z,147107.28
2023-02-18T04:33:39.910Z,147093.97
2023-02-18T04:34:42.550Z,147100.00
2023-02-18T04:35:45.190Z,147100.00
2023-02-18T04:36:47.735Z,147102.41
2023-02-18T04:37:50.713Z,147097.59
2023-02-18T04:38:53.364Z,147100.00
2023-02-18T04:39:55.996Z,147087.94
2023-02-18T04:40:58.638Z,147100.00
2023-02-18T04:42:01.522Z,147102.41
2023-02-18T04:43:04.061Z,147103.63
2023-02-18T04:44:06.579Z,147095.19
2023-02-18T04:45:09.579Z,147107.28
2023-02-18T04:46:12.184Z,147100.00
2023-02-18T04:47:14.971Z,147115.78
2023-02-18T04:48:17.612Z,147129.06
2023-02-18T04:49:20.372Z,147130.25
2023-02-18T04:50:23.499Z,147129.06
2023-02-18T04:51:26.140Z,147118.19
2023-02-18T04:52:28.909Z,147133.88
2023-02-18T04:53:31.541Z,147120.63
2023-02-18T04:54:34.543Z,147133.88
2023-02-18T04:55:37.423Z,147136.31
2023-02-18T04:56:40.302Z,147131.47
2023-02-18T04:57:43.433Z,147129.06
2023-02-18T04:58:46.547Z,147139.91
2023-02-18T04:59:49.674Z,147137.50
2023-02-18T05:00:54.248Z,147137.50
2023-02-18T05:01:57.353Z,147146.00
2023-02-18T05:03:00.478Z,147160.47
2023-02-18T05:04:03.854Z,147172.56
2023-02-18T05:05:07.082Z,147174.97
2023-02-18T05:06:10.420Z,147167.72
2023-02-18T05:07:13.691Z,147189.50
2023-02-18T05:08:16.811Z,147197.94
2023-02-18T05:09:19.934Z,147200.38
2023-02-18T05:10:23.057Z,147182.25
2023-02-18T05:11:26.175Z,147191.91
2023-02-18T05:12:29.296Z,147162.91
2023-02-18T05:13:32.421Z,147150.81
2023-02-18T05:14:35.540Z,147168.94
2023-02-18T05:15:38.685Z,147138.72
2023-02-18T05:16:42.022Z,147130.25
2023-02-18T05:17:45.146Z,147131.47
2023-02-18T05:18:48.392Z,147126.66
2023-02-18T05:19:51.511Z,147130.25
2023-02-18T05:20:54.630Z,147146.00
2023-02-18T05:21:57.756Z,147148.41
2023-02-18T05:23:00.876Z,147144.78
2023-02-18T05:24:04.357Z,147139.91
2023-02-18T05:25:08.081Z,147137.50
2023-02-18T05:26:11.422Z,147138.72
2023-02-18T05:27:14.684Z,147143.59
2023-02-18T05:28:18.046Z,147143.59
2023-02-18T05:29:21.286Z,147143.59
2023-02-18T05:30:24.947Z,147138.72
2023-02-18T05:31:28.314Z,147148.41
2023-02-18T05:32:31.615Z,147148.41
2023-02-18T05:33:34.620Z,147153.25
2023-02-18T05:34:37.612Z,147154.44
2023-02-18T05:35:40.737Z,147123.03
2023-02-18T05:36:44.217Z,147142.34
2023-02-18T05:37:47.226Z,147143.59
2023-02-18T05:38:49.979Z,147147.22
2023-02-18T05:39:52.680Z,147153.25
2023-02-18T05:40:56.238Z,147139.91
2023-02-18T05:41:58.798Z,147141.13
2023-02-18T05:43:01.326Z,147146.00
2023-02-18T05:44:22.510Z,147124.22
2023-02-18T05:45:25.028Z,147153.25
2023-02-18T05:46:27.736Z,147123.03
2023-02-18T05:47:30.362Z,147127.84
2023-02-18T05:48:33.004Z,147136.31
2023-02-18T05:49:36.316Z,147142.34
2023-02-18T05:50:38.887Z,147126.66
2023-02-18T05:51:41.404Z,147129.06
2023-02-18T05:52:43.930Z,147124.22
2023-02-18T05:53:46.444Z,147119.41
2023-02-18T05:54:49.045Z,147117.00
2023-02-18T05:55:51.690Z,147107.28
2023-02-18T05:56:54.737Z,147102.41
2023-02-18T05:57:57.369Z,147091.56
2023-02-18T05:58:59.889Z,147078.28
2023-02-18T06:00:02.423Z,147090.34
2023-02-18T06:01:07.225Z,147090.34
2023-02-18T06:02:09.849Z,147092.75
2023-02-18T06:03:12.370Z,147083.09
2023-02-18T06:04:15.612Z,147075.81
2023-02-18T06:05:18.376Z,147086.72
2023-02-18T06:06:21.016Z,147090.34
2023-02-18T06:07:23.653Z,147084.31
2023-02-18T06:08:26.428Z,147144.78
2023-02-18T06:09:29.056Z,147123.03
2023-02-18T06:10:31.588Z,147124.22
2023-02-18T06:11:35.058Z,147144.78
2023-02-18T06:12:37.582Z,147141.13
2023-02-18T06:13:40.221Z,147137.50
2023-02-18T06:14:43.109Z,147120.63
2023-02-18T06:15:45.774Z,147126.66
2023-02-18T06:16:48.383Z,147131.47
2023-02-18T06:17:50.915Z,147141.13
2023-02-18T06:18:53.543Z,147131.47
2023-02-18T06:19:56.181Z,147129.06
2023-02-18T06:20:59.196Z,147119.41
2023-02-18T06:22:02.065Z,147117.00
2023-02-18T06:23:07.631Z,147138.72
2023-02-18T06:24:11.541Z,147129.06
2023-02-18T06:25:14.549Z,147136.31
2023-02-18T06:26:17.065Z,147136.31
2023-02-18T06:27:19.602Z,147133.88
2023-02-18T06:28:22.232Z,147133.88
2023-02-18T06:29:25.109Z,147143.59
2023-02-18T06:30:27.680Z,147139.91
2023-02-18T06:31:30.365Z,147136.31
2023-02-18T06:32:32.912Z,147137.50
2023-02-18T06:33:35.551Z,147131.47
2023-02-18T06:34:38.069Z,147139.91
2023-02-18T06:35:40.719Z,147142.34
2023-02-18T06:36:43.231Z,147138.72
2023-02-18T06:37:45.992Z,147139.91
2023-02-18T06:38:48.523Z,147131.47
2023-02-18T06:39:51.159Z,147136.31
2023-02-18T06:40:53.931Z,147143.59
2023-02-18T06:41:56.446Z,147143.59
2023-02-18T06:42:58.958Z,147142.34
2023-02-18T06:44:01.490Z,147143.59
2023-02-18T06:45:06.774Z,147144.78
2023-02-18T06:46:09.842Z,147148.41
2023-02-18T06:47:12.649Z,147133.88
2023-02-18T06:48:15.528Z,147137.50
2023-02-18T06:49:18.052Z,147138.72
2023-02-18T06:50:20.690Z,147136.31
2023-02-18T06:51:23.332Z,147131.47
2023-02-18T06:52:26.104Z,147102.41
2023-02-18T06:53:29.095Z,147095.19
2023-02-18T06:54:32.217Z,147110.97
2023-02-18T06:55:35.099Z,147090.34
2023-02-18T06:56:38.703Z,147090.34
2023-02-18T06:57:41.709Z,147097.59
2023-02-18T06:58:45.066Z,147101.22
2023-02-18T06:59:48.073Z,147103.63
2023-02-18T07:00:51.108Z,147117.00
2023-02-18T07:01:54.189Z,147114.56
2023-02-18T07:02:57.311Z,147115.78
2023-02-18T07:04:00.512Z,147160.47
2023-02-18T07:05:03.793Z,147223.34
2023-02-18T07:06:07.411Z,147274.13
2023-02-18T07:07:10.638Z,147295.88
2023-02-18T07:08:13.881Z,147312.81
2023-02-18T07:09:17.120Z,147322.50
2023-02-18T07:10:20.370Z,147317.66
2023-02-18T07:11:23.488Z,147327.31
2023-02-18T07:12:26.611Z,147332.16
2023-02-18T07:13:29.728Z,147345.47
2023-02-18T07:14:32.970Z,147353.94
2023-02-18T07:15:36.090Z,147343.06
2023-02-18T07:16:39.263Z,147321.28
2023-02-18T07:17:42.458Z,147291.03
2023-02-18T07:18:46.778Z,147322.50
2023-02-18T07:19:50.020Z,147278.97
2023-02-18T07:20:53.141Z,147276.56
2023-02-18T07:21:58.061Z,147262.03
2023-02-18T07:23:01.421Z,147237.84
2023-02-18T07:24:04.904Z,147249.94
2023-02-18T07:25:08.265Z,147265.63
2023-02-18T07:26:14.270Z,147228.16
2023-02-18T07:27:17.656Z,147218.50
2023-02-18T07:28:20.870Z,147223.34
2023-02-18T07:29:24.234Z,147230.59
2023-02-18T07:30:27.507Z,147233.00
2023-02-18T07:31:30.767Z,147224.56
2023-02-18T07:32:34.442Z,147230.59
2023-02-18T07:33:37.568Z,147239.03
2023-02-18T07:34:41.282Z,147243.91
2023-02-18T07:35:44.287Z,147270.47
2023-02-18T07:36:47.405Z,147283.81
2023-02-18T07:37:51.127Z,147298.28
2023-02-18T07:38:53.888Z,147300.69
2023-02-18T07:39:56.773Z,147292.25
2023-02-18T07:41:00.500Z,147310.41
2023-02-18T07:42:04.332Z,147334.56
2023-02-18T07:43:08.799Z,147334.56
2023-02-18T07:44:11.232Z,147358.75
2023-02-18T07:45:14.603Z,147347.88
2023-02-18T07:46:17.660Z,147351.50
2023-02-18T07:47:20.355Z,147359.97
2023-02-18T07:48:22.955Z,147351.50
2023-02-18T07:49:26.115Z,147343.06
2023-02-18T07:50:28.741Z,147356.34
2023-02-18T07:51:31.396Z,147341.84
2023-02-18T07:52:33.994Z,147352.72
2023-02-18T07:53:37.516Z,147391.41
2023-02-18T07:54:40.041Z,147387.78
2023-02-18T07:55:51.702Z,147404.75
2023-02-18T07:56:55.042Z,147399.88
2023-02-18T07:57:57.684Z,147422.88
2023-02-18T07:59:00.204Z,147424.06
2023-02-18T08:00:03.207Z,147428.91
2023-02-18T08:01:15.442Z,147433.72
2023-02-18T08:02:22.663Z,147445.84
2023-02-18T08:03:30.693Z,147450.69
2023-02-18T08:04:34.649Z,147479.72
2023-02-18T08:05:37.287Z,147470.06
2023-02-18T08:06:42.655Z,147496.63
2023-02-18T08:07:45.417Z,147489.41
2023-02-18T08:08:48.084Z,147494.22
2023-02-18T08:09:51.025Z,147473.69
2023-02-18T08:10:55.512Z,147499.06
2023-02-18T08:11:58.527Z,147520.84
2023-02-18T08:13:01.172Z,147506.34
2023-02-18T08:14:04.056Z,147511.19
2023-02-18T08:15:06.816Z,147520.84
2023-02-18T08:16:10.646Z,147537.81
2023-02-18T08:17:13.424Z,147542.66
2023-02-18T08:18:22.299Z,147554.78
2023-02-18T08:19:25.183Z,147555.97
2023-02-18T08:20:30.485Z,147559.63
2023-02-18T08:21:33.341Z,147542.66
2023-02-18T08:22:35.861Z,147547.47
2023-02-18T08:23:38.501Z,147562.03
2023-02-18T08:24:41.148Z,147564.44
2023-02-18T08:25:50.150Z,147586.25
2023-02-18T08:27:00.258Z,147532.94
2023-02-18T08:28:03.948Z,147537.81
2023-02-18T08:29:06.490Z,147525.69
2023-02-18T08:30:09.608Z,147540.22
2023-02-18T08:31:21.224Z,147564.44
2023-02-18T08:32:27.830Z,147562.03
2023-02-18T08:33:30.588Z,147547.47
2023-02-18T08:34:33.110Z,147534.13
2023-02-18T08:35:35.529Z,147559.63
2023-02-18T08:36:38.032Z,147557.19
2023-02-18T08:37:52.921Z,147548.69
2023-02-18T08:38:57.835Z,147542.66
2023-02-18T08:40:02.523Z,147559.63
2023-02-18T08:41:07.385Z,147553.56
2023-02-18T08:42:10.081Z,147547.47
2023-02-18T08:43:15.362Z,147551.16
2023-02-18T08:44:17.909Z,147571.75
2023-02-18T08:45:20.526Z,147557.19
2023-02-18T08:46:25.147Z,147562.03
2023-02-18T08:48:19.490Z,147559.63
2023-02-18T08:48:58.452Z,147552.38
2023-02-18T08:50:01.103Z,147568.13
2023-02-18T08:51:18.615Z,147599.59
2023-02-18T08:52:21.498Z,147553.56
2023-02-18T08:53:24.142Z,147562.03
2023-02-18T08:54:27.018Z,147581.41
2023-02-18T08:55:31.700Z,147583.81
2023-02-18T08:56:34.603Z,147559.63
2023-02-18T08:57:37.344Z,147589.88
2023-02-18T08:58:40.467Z,147581.41
2023-02-18T08:59:43.474Z,147569.31
2023-02-18T09:00:46.729Z,147581.41
2023-02-18T09:01:49.855Z,147591.06
2023-02-18T09:02:52.848Z,147589.88
2023-02-18T09:03:56.028Z,147577.78
2023-02-18T09:04:59.195Z,147579.00
2023-02-18T09:06:03.040Z,147580.19
2023-02-18T09:07:06.281Z,147569.31
2023-02-18T09:08:09.521Z,147588.66
2023-02-18T09:09:12.653Z,147592.28
2023-02-18T09:10:17.093Z,147605.63
2023-02-18T09:11:21.170Z,147600.78
2023-02-18T09:12:24.407Z,147615.28
2023-02-18T09:13:28.501Z,147604.41
2023-02-18T09:14:32.092Z,147603.22
2023-02-18T09:15:35.278Z,147605.63
2023-02-18T09:16:39.896Z,147603.22
2023-02-18T09:17:43.140Z,147577.78
2023-02-18T09:18:48.062Z,147588.66
2023-02-18T09:19:51.183Z,147594.69
2023-02-18T09:20:58.502Z,147617.72
2023-02-18T09:22:02.221Z,147610.47
2023-02-18T09:23:05.344Z,147593.50
2023-02-18T09:24:08.591Z,147580.19
2023-02-18T09:25:11.946Z,147595.91
2023-02-18T09:26:17.714Z,147602.00
2023-02-18T09:27:22.632Z,147600.78
2023-02-18T09:28:26.110Z,147598.31
2023-02-18T09:29:29.593Z,147586.25
2023-02-18T09:30:33.114Z,147591.06
2023-02-18T09:31:36.515Z,147600.78
2023-02-18T09:32:40.206Z,147602.00
2023-02-18T09:33:46.761Z,147605.63
2023-02-18T09:34:49.909Z,147579.00
2023-02-18T09:35:53.245Z,147598.31
2023-02-18T09:36:56.242Z,147593.50
2023-02-18T09:37:59.021Z,147566.88
2023-02-18T09:39:02.247Z,147576.56
2023-02-18T09:40:05.980Z,147568.13
2023-02-18T09:41:39.936Z,147600.78
2023-02-18T09:42:43.061Z,147577.78
2023-02-18T09:43:49.416Z,147603.22
2023-02-18T09:44:58.295Z,147603.22
2023-02-18T09:46:03.558Z,147605.63
2023-02-18T09:47:39.947Z,147624.97
2023-02-18T09:48:44.983Z,147589.88
2023-02-18T09:49:54.829Z,147610.47
2023-02-18T09:50:58.006Z,147585.03
2023-02-18T09:52:13.123Z,147595.91
2023-02-18T09:53:16.354Z,147564.44
2023-02-18T09:54:20.679Z,147587.44
2023-02-18T09:55:28.565Z,147588.66
2023-02-18T09:56:40.529Z,147585.03
2023-02-18T09:57:59.679Z,147558.41
2023-02-18T09:59:06.402Z,147594.69
2023-02-18T10:00:20.041Z,147598.31
2023-02-18T10:01:27.921Z,147604.41
2023-02-18T10:02:31.482Z,147600.78
2023-02-18T10:03:34.087Z,147606.84
2023-02-18T10:04:52.365Z,147640.72
2023-02-18T10:06:02.564Z,147615.28
2023-02-18T10:07:06.852Z,147602.00
2023-02-18T10:08:25.094Z,147614.09
2023-02-18T10:09:36.737Z,147588.66
2023-02-18T10:10:46.239Z,147597.13
2023-02-18T10:11:52.941Z,147605.63
2023-02-18T10:12:58.992Z,147599.59
2023-02-18T10:14:03.317Z,147610.47
2023-02-18T10:15:17.101Z,147608.03
2023-02-18T10:16:22.188Z,147594.69
2023-02-18T10:17:27.533Z,147595.91
2023-02-18T10:18:36.413Z,147600.78
2023-02-18T10:19:41.214Z,147581.41
2023-02-18T10:20:44.338Z,147571.75
2023-02-18T10:21:48.294Z,147589.88
2023-02-18T10:22:53.095Z,147593.50
2023-02-18T10:24:34.861Z,147606.84
2023-02-18T10:25:43.754Z,147606.84
2023-02-18T10:26:46.387Z,147597.13
2023-02-18T10:27:52.265Z,147603.22
2023-02-18T10:28:55.380Z,147591.06
2023-02-18T10:30:17.634Z,147595.91
2023-02-18T10:31:34.535Z,147629.78
2023-02-18T10:32:40.636Z,147624.97
2023-02-18T10:34:16.269Z,147616.50
2023-02-18T10:36:00.082Z,147641.94
2023-02-18T10:37:14.967Z,147635.88
2023-02-18T10:38:35.598Z,147621.34
2023-02-18T10:39:50.613Z,147629.78
2023-02-18T10:41:26.376Z,147666.16
2023-02-18T10:43:01.513Z,147654.00
2023-02-18T10:44:17.365Z,147629.78
2023-02-18T10:45:37.886Z,147644.34
2023-02-18T10:46:43.431Z,147635.88
2023-02-18T10:47:56.843Z,147620.13
2023-02-18T10:49:06.931Z,147637.09
2023-02-18T10:50:19.142Z,147643.13
2023-02-18T10:51:26.142Z,147618.91
2023-02-18T10:52:33.933Z,147629.78
2023-02-18T10:53:40.669Z,147629.78
2023-02-18T10:55:16.017Z,147632.25
2023-02-18T10:56:41.283Z,147646.75
2023-02-18T10:57:49.903Z,147658.84
2023-02-18T10:58:54.819Z,147634.69
2023-02-18T11:00:26.828Z,147664.94
2023-02-18T11:01:31.736Z,147626.16
2023-02-18T11:02:34.783Z,147621.34
2023-02-18T11:03:48.111Z,147595.91
2023-02-18T11:04:51.294Z,147562.03
2023-02-18T11:05:57.239Z,147592.28
2023-02-18T11:07:05.871Z,147605.63
2023-02-18T11:08:11.520Z,147603.22
2023-02-18T11:09:51.610Z,147591.06
2023-02-18T11:10:56.765Z,147591.06
2023-02-18T11:12:08.751Z,147571.75
2023-02-18T11:13:16.805Z,147579.00
2023-02-18T11:14:41.524Z,147593.50
2023-02-18T11:16:06.770Z,147624.97
2023-02-18T11:17:17.176Z,147586.25
2023-02-18T11:18:38.536Z,147581.41
2023-02-18T11:19:41.664Z,147562.03
2023-02-18T11:20:59.895Z,147549.91
2023-02-18T11:22:29.054Z,147577.78
2023-02-18T11:23:32.196Z,147562.03
2023-02-18T11:24:39.507Z,147554.78
2023-02-18T11:25:59.662Z,147552.38
2023-02-18T11:27:02.782Z,147542.66
2023-02-18T11:28:27.507Z,147553.56
2023-02-18T11:29:33.271Z,147547.47
2023-02-18T11:30:43.839Z,147566.88
2023-02-18T11:31:50.383Z,147558.41
2023-02-18T11:32:59.798Z,147559.63
2023-02-18T11:34:04.234Z,147580.19
2023-02-18T11:35:07.716Z,147540.22
2023-02-18T11:36:20.438Z,147562.03
2023-02-18T11:37:24.048Z,147554.78
2023-02-18T11:38:37.483Z,147558.41
2023-02-18T11:39:46.124Z,147574.16
2023-02-18T11:40:56.693Z,147565.66
2023-02-18T11:42:01.382Z,147545.06
2023-02-18T11:43:21.892Z,147582.63
2023-02-18T11:44:27.293Z,147569.31
2023-02-18T11:45:33.668Z,147566.88
2023-02-18T11:46:36.441Z,147559.63
2023-02-18T11:47:39.308Z,147551.16
2023-02-18T11:48:42.536Z,147585.03
2023-02-18T11:50:19.868Z,147615.28
2023-02-18T11:51:48.831Z,147626.16
2023-02-18T11:52:52.400Z,147632.25
2023-02-18T11:54:01.752Z,147627.38
2023-02-18T11:55:16.452Z,147656.44
2023-02-18T11:56:20.637Z,147617.72
2023-02-18T11:57:26.559Z,147622.53
2023-02-18T11:58:38.837Z,147602.00
2023-02-18T11:59:43.083Z,147610.47
2023-02-18T12:00:48.202Z,147588.66
2023-02-18T12:02:01.460Z,147612.88
2023-02-18T12:03:26.969Z,147597.13
2023-02-18T12:04:39.157Z,147599.59
2023-02-18T12:05:43.327Z,147591.06
2023-02-18T12:06:48.728Z,147591.06
2023-02-18T12:07:59.530Z,147631.00
2023-02-18T12:09:06.127Z,147637.09
2023-02-18T12:10:23.052Z,147610.47
2023-02-18T12:11:45.105Z,147598.31
2023-02-18T12:12:54.852Z,147598.31
2023-02-18T12:13:58.933Z,147595.91
2023-02-18T12:15:01.914Z,147609.25
2023-02-18T12:16:46.910Z,147615.28
2023-02-18T12:18:12.617Z,147600.78
2023-02-18T12:19:37.602Z,147610.47
2023-02-18T12:21:00.377Z,147608.03
2023-02-18T12:22:27.138Z,147600.78
2023-02-18T12:23:57.020Z,147610.47
2023-02-18T12:25:24.267Z,147628.59
2023-02-18T12:26:38.668Z,147639.50
2023-02-18T12:28:09.991Z,147654.00
2023-02-18T12:29:35.817Z,147638.31
2023-02-18T12:30:53.605Z,147615.28
2023-02-18T12:32:20.190Z,147620.13
2023-02-18T12:33:47.074Z,147614.09
2023-02-18T12:35:00.987Z,147629.78
2023-02-18T12:36:30.988Z,147632.25
2023-02-18T12:38:09.278Z,147627.38
2023-02-18T12:39:40.951Z,147624.97
2023-02-18T12:41:05.312Z,147615.28
2023-02-18T12:42:14.560Z,147610.47
2023-02-18T12:43:23.193Z,147620.13
2023-02-18T12:44:45.771Z,147644.34
2023-02-18T12:46:02.341Z,147624.97
2023-02-18T12:47:16.720Z,147697.63
2023-02-18T12:48:37.508Z,147759.31
2023-02-18T12:50:03.284Z,147811.41
2023-02-18T12:51:43.488Z,147856.19